Terminal Aerodrome Forecast
Issued by NWS Denver/Boulder, CO

Home | Current Version | Previous Version | Text Only | Print | Product List | Glossary On
Versions: 1 2 3 4 5 6 7 8 9 10 11 12 13 14 15 16 17 18 19 20 21 22 23 24 25 26 27 28 29 30 31 32 33 34 35 36 37 38 39 40 41 42 43 44 45 46 47 48 49 50
000
FTUS45 KBOU 241720
TAFDEN
TAF
KDEN 241720Z 2418/2524 VRB05KT P6SM FEW150 SCT220
     FM241900 04007KT P6SM FEW100 SCT220
     FM242200 13012KT P6SM SCT080 BKN150
     FM250100 17015G24KT P6SM SCT080 BKN150
     FM250600 20014KT P6SM SCT120 BKN220
     FM251400 25008KT P6SM SCT090 BKN150
     FM252100 19006KT P6SM VCTS SCT090CB BKN120=

USA.gov is the U.S. government's official web portal to all federal, state and local government web resources and services.